Time;durP1;ratioP1;P1;durP2;ratioP2;P2;SDS_P1;SDS_P2;PMS_P1;PMS_P2;Temp;Humidity;BMP_temperature;BMP_pressure;BME280_temperature;BME280_humidity;BME280_pressure;Samples;Min_cycle;Max_cycle;Signal;HPM_P1;HPM_P2
2021/05/27 00:00:31;;;;;;;2.03;1.83;;;13.40;99.90;;;;;;5053574;28;20188;-78
2021/05/27 00:02:57;;;;;;;4.03;2.33;;;13.50;99.90;;;;;;5052399;28;20584;-77
2021/05/27 00:05:23;;;;;;;3.90;1.80;;;13.40;99.90;;;;;;5059147;28;20176;-77
2021/05/27 00:07:49;;;;;;;2.58;1.85;;;13.30;99.90;;;;;;5060320;28;20172;-76
2021/05/27 00:10:19;;;;;;;2.35;2.03;;;13.30;99.90;;;;;;5059409;28;20659;-78
2021/05/27 00:12:45;;;;;;;2.55;2.33;;;13.30;99.90;;;;;;5058867;28;20227;-77
2021/05/27 00:15:12;;;;;;;2.40;2.00;;;13.30;99.90;;;;;;5060444;28;20165;-77
2021/05/27 00:17:38;;;;;;;2.35;2.03;;;13.30;99.90;;;;;;5060932;28;20165;-79
2021/05/27 00:20:06;;;;;;;2.90;2.53;;;13.20;99.90;;;;;;5060977;28;20203;-78
2021/05/27 00:22:31;;;;;;;3.22;2.33;;;13.20;99.90;;;;;;5058732;28;20200;-77
2021/05/27 00:24:57;;;;;;;2.90;2.67;;;13.20;99.90;;;;;;5060341;28;20177;-76
2021/05/27 00:27:23;;;;;;;4.93;2.80;;;13.10;99.90;;;;;;5059900;28;20667;-79
2021/05/27 00:29:49;;;;;;;3.80;2.42;;;13.20;99.90;;;;;;5061281;28;20180;-78
2021/05/27 00:32:14;;;;;;;7.30;3.13;;;13.30;99.90;;;;;;5059792;28;20200;-78
2021/05/27 00:34:40;;;;;;;2.37;2.17;;;13.50;99.90;;;;;;5061221;28;20662;-77
2021/05/27 00:37:06;;;;;;;2.70;2.03;;;13.60;99.90;;;;;;5060800;28;20168;-78
2021/05/27 00:39:31;;;;;;;3.00;2.70;;;13.60;99.90;;;;;;5044444;28;20659;-78
2021/05/27 00:41:58;;;;;;;3.00;2.20;;;13.70;99.90;;;;;;5059893;28;20227;-77
2021/05/27 00:44:25;;;;;;;2.50;2.30;;;13.70;99.90;;;;;;5059503;28;20662;-77
2021/05/27 00:46:52;;;;;;;2.60;2.38;;;13.70;99.90;;;;;;5060803;28;20282;-78
2021/05/27 00:49:18;;;;;;;2.85;2.50;;;13.70;99.90;;;;;;5059839;28;20215;-78
2021/05/27 00:51:46;;;;;;;3.47;2.47;;;13.70;99.90;;;;;;5060208;28;20212;-78
2021/05/27 00:54:12;;;;;;;2.50;2.28;;;13.60;99.90;;;;;;5060690;28;20543;-77
2021/05/27 00:56:40;;;;;;;3.05;2.35;;;13.50;99.90;;;;;;5059833;28;20203;-77
2021/05/27 00:59:07;;;;;;;3.00;2.35;;;13.60;99.90;;;;;;5060937;28;20322;-78
2021/05/27 01:01:32;;;;;;;3.20;2.60;;;13.60;99.90;;;;;;5059897;28;20676;-77
2021/05/27 01:03:59;;;;;;;2.50;2.10;;;13.60;99.90;;;;;;5061023;28;20267;-78
2021/05/27 01:06:24;;;;;;;2.63;2.42;;;13.40;99.90;;;;;;5059506;28;20426;-80
2021/05/27 01:08:50;;;;;;;4.83;2.10;;;13.30;99.90;;;;;;5061749;28;20184;-78
2021/05/27 01:11:16;;;;;;;4.20;2.10;;;13.30;99.90;;;;;;5059920;28;20196;-77
2021/05/27 01:13:43;;;;;;;2.55;2.20;;;13.40;99.90;;;;;;5060291;28;20164;-77
2021/05/27 01:16:17;;;;;;;4.30;2.35;;;13.40;99.90;;;;;;5058016;28;20233;-77
2021/05/27 01:18:43;;;;;;;4.63;2.70;;;13.30;99.90;;;;;;5056015;28;20176;-78
2021/05/27 01:21:18;;;;;;;3.22;2.60;;;13.30;99.90;;;;;;5056601;28;20188;-76
2021/05/27 01:23:44;;;;;;;3.75;3.15;;;13.30;99.90;;;;;;5056120;28;20176;-78
2021/05/27 01:26:11;;;;;;;2.87;2.40;;;13.30;99.90;;;;;;5056079;28;20230;-78
2021/05/27 01:28:37;;;;;;;4.30;3.83;;;13.30;99.90;;;;;;5056110;28;20434;-77
2021/05/27 01:31:06;;;;;;;5.72;2.78;;;13.20;99.90;;;;;;5055871;28;20196;-78
2021/05/27 01:33:32;;;;;;;3.97;3.10;;;13.30;99.90;;;;;;5055894;28;20192;-77
2021/05/27 01:35:59;;;;;;;4.33;2.37;;;13.10;99.90;;;;;;5054216;28;20173;-77
2021/05/27 01:38:26;;;;;;;5.35;3.15;;;13.00;99.90;;;;;;5055424;28;20414;-77
2021/05/27 01:40:53;;;;;;;2.63;2.35;;;13.10;99.90;;;;;;5056259;28;20237;-78
2021/05/27 01:43:20;;;;;;;10.15;3.63;;;13.10;99.90;;;;;;5055484;28;20227;-77
2021/05/27 01:45:46;;;;;;;3.80;2.70;;;13.10;99.90;;;;;;5055654;28;20187;-78
2021/05/27 01:48:11;;;;;;;3.57;3.13;;;13.20;99.90;;;;;;5055814;28;20531;-78
2021/05/27 01:50:46;;;;;;;3.30;3.00;;;13.20;99.90;;;;;;5055521;28;20200;-78
2021/05/27 01:53:12;;;;;;;5.25;2.70;;;13.20;99.90;;;;;;5057042;28;20410;-78
2021/05/27 01:55:46;;;;;;;3.87;3.10;;;13.20;99.90;;;;;;5057747;28;20191;-78
2021/05/27 01:58:11;;;;;;;3.92;3.20;;;13.20;99.90;;;;;;5056610;28;20427;-77
2021/05/27 02:00:38;;;;;;;4.67;3.13;;;13.30;99.90;;;;;;5054365;28;20574;-78
2021/05/27 02:03:04;;;;;;;4.85;2.92;;;13.20;99.90;;;;;;5055210;28;20462;-77
2021/05/27 02:05:30;;;;;;;7.07;3.10;;;13.20;99.90;;;;;;5055986;28;20259;-78
2021/05/27 02:07:55;;;;;;;9.23;2.97;;;13.20;99.90;;;;;;5055531;28;20164;-77
2021/05/27 02:10:21;;;;;;;7.03;3.87;;;13.20;99.90;;;;;;5037745;28;20359;-78
2021/05/27 02:12:46;;;;;;;5.33;3.70;;;13.20;99.90;;;;;;5054186;28;20678;-77
2021/05/27 02:15:13;;;;;;;4.50;3.20;;;13.20;99.90;;;;;;5054680;28;20203;-78
2021/05/27 02:17:38;;;;;;;8.10;3.53;;;13.00;99.90;;;;;;5054571;28;20232;-77
2021/05/27 02:20:05;;;;;;;4.00;3.60;;;13.00;99.90;;;;;;5055698;28;20204;-76
2021/05/27 02:22:31;;;;;;;5.55;4.65;;;13.00;99.90;;;;;;5055294;28;20205;-78
2021/05/27 02:24:56;;;;;;;5.30;3.63;;;13.00;99.90;;;;;;5055576;28;20187;-77
2021/05/27 02:27:22;;;;;;;5.53;3.90;;;12.80;99.90;;;;;;5054883;28;20278;-77
2021/05/27 02:29:48;;;;;;;4.80;3.97;;;12.80;99.90;;;;;;5055456;28;20253;-79
2021/05/27 02:32:14;;;;;;;5.10;4.47;;;12.70;99.90;;;;;;5057110;28;20185;-78
2021/05/27 02:34:40;;;;;;;3.97;3.57;;;12.70;99.90;;;;;;5055364;28;20598;-78
2021/05/27 02:37:05;;;;;;;5.60;4.40;;;12.60;99.90;;;;;;5055563;28;20173;-78
2021/05/27 02:39:31;;;;;;;4.73;3.60;;;12.50;99.90;;;;;;5055337;28;20183;-79
2021/05/27 02:41:57;;;;;;;5.90;4.30;;;12.50;99.90;;;;;;5055751;28;20240;-76
2021/05/27 02:44:22;;;;;;;3.90;3.37;;;12.30;99.90;;;;;;5054576;28;20172;-76
2021/05/27 02:46:48;;;;;;;7.70;4.10;;;12.50;99.90;;;;;;5056476;28;20181;-78
2021/05/27 02:49:13;;;;;;;6.37;3.83;;;12.50;99.90;;;;;;5054399;28;20275;-76
2021/05/27 02:51:39;;;;;;;5.70;4.20;;;12.50;99.90;;;;;;5054291;28;20192;-77
2021/05/27 02:54:05;;;;;;;4.23;3.77;;;12.50;99.90;;;;;;5053715;28;20176;-78
2021/05/27 02:56:31;;;;;;;4.77;4.00;;;12.40;99.90;;;;;;5054467;28;20188;-77
2021/05/27 02:58:56;;;;;;;7.68;4.00;;;12.40;99.90;;;;;;5054250;28;20253;-77
2021/05/27 03:01:22;;;;;;;5.60;4.47;;;12.40;99.90;;;;;;5053718;28;20548;-77
2021/05/27 03:03:48;;;;;;;7.37;4.70;;;12.60;99.90;;;;;;5054052;28;20628;-77
2021/05/27 03:06:14;;;;;;;3.90;3.50;;;12.70;99.90;;;;;;5054019;28;20399;-77
2021/05/27 03:08:41;;;;;;;6.85;3.67;;;12.80;99.90;;;;;;5054266;28;20172;-77
2021/05/27 03:11:07;;;;;;;5.20;4.20;;;12.80;99.90;;;;;;5055091;28;20185;-77
2021/05/27 03:13:33;;;;;;;6.43;4.35;;;12.80;99.90;;;;;;5054229;28;20532;-77
2021/05/27 03:15:58;;;;;;;3.97;3.40;;;12.80;99.90;;;;;;5054230;28;20176;-77
2021/05/27 03:18:24;;;;;;;5.37;4.30;;;12.70;99.90;;;;;;5053999;28;20640;-77
2021/05/27 03:20:49;;;;;;;5.67;4.13;;;12.80;99.90;;;;;;5054193;28;20626;-77
2021/05/27 03:23:15;;;;;;;4.00;3.60;;;12.80;99.90;;;;;;5054420;28;20200;-78
2021/05/27 03:25:41;;;;;;;13.83;4.53;;;12.90;99.90;;;;;;5053434;28;20201;-78
2021/05/27 03:28:06;;;;;;;4.03;3.63;;;13.00;99.90;;;;;;5036644;28;20167;-77
2021/05/27 03:30:32;;;;;;;4.60;3.70;;;13.00;99.90;;;;;;5054352;28;20224;-77
2021/05/27 03:32:57;;;;;;;5.73;4.10;;;13.00;99.90;;;;;;5053896;28;20193;-76
2021/05/27 03:35:23;;;;;;;4.77;3.83;;;13.00;99.90;;;;;;5052892;28;20176;-78
2021/05/27 03:37:49;;;;;;;5.27;4.27;;;13.00;99.90;;;;;;5054719;28;20203;-78
2021/05/27 03:40:16;;;;;;;7.83;4.87;;;12.80;99.90;;;;;;5053838;28;20208;-76
2021/05/27 03:42:53;;;;;;;3.08;2.80;;;12.70;99.90;;;;;;5055904;28;20229;-78
2021/05/27 03:45:21;;;;;;;6.90;4.65;;;12.70;99.90;;;;;;5053905;28;20168;-77
2021/05/27 03:47:47;;;;;;;5.28;4.38;;;12.70;99.90;;;;;;5053499;28;20201;-76
2021/05/27 03:50:15;;;;;;;6.40;4.47;;;12.80;99.90;;;;;;5054139;28;20196;-78
2021/05/27 03:52:42;;;;;;;15.60;4.78;;;12.70;99.90;;;;;;5052920;28;20242;-77
2021/05/27 03:55:10;;;;;;;5.43;3.85;;;12.70;99.90;;;;;;5053852;28;20539;-77
2021/05/27 03:57:36;;;;;;;4.25;3.50;;;12.70;99.90;;;;;;5052844;28;20185;-78
2021/05/27 04:02:50;;;;;;;5.68;4.13;;;12.90;99.90;;;;;;5053827;28;20469;-78
2021/05/27 04:08:14;;;;;;;5.47;3.95;;;12.90;99.90;;;;;;5041868;28;20311;-77
2021/05/27 04:10:40;;;;;;;4.38;3.90;;;13.10;99.90;;;;;;5053528;28;20179;-77
2021/05/27 04:13:05;;;;;;;8.47;4.57;;;13.00;99.90;;;;;;5051953;28;20193;-77
2021/05/27 04:15:33;;;;;;;8.97;4.20;;;13.00;99.90;;;;;;5054134;28;20180;-77
2021/05/27 04:18:10;;;;;;;5.18;4.10;;;12.90;99.90;;;;;;5054131;28;20259;-78
2021/05/27 04:20:39;;;;;;;5.72;3.95;;;13.00;99.90;;;;;;5053210;28;20578;-78
2021/05/27 04:23:07;;;;;;;6.60;4.25;;;13.00;99.90;;;;;;5057603;28;20209;-78
2021/05/27 04:25:33;;;;;;;6.68;4.32;;;13.00;99.90;;;;;;5054016;28;20521;-77
2021/05/27 04:28:00;;;;;;;4.67;3.90;;;13.00;99.90;;;;;;5054103;28;20176;-76
2021/05/27 04:30:27;;;;;;;8.15;4.00;;;13.10;99.90;;;;;;5054101;28;20403;-77
2021/05/27 04:33:06;;;;;;;4.85;3.55;;;13.20;99.90;;;;;;5053734;28;20529;-79
2021/05/27 04:35:37;;;;;;;4.18;3.78;;;13.30;99.90;;;;;;5054376;28;20165;-77
2021/05/27 04:38:13;;;;;;;5.55;4.00;;;13.40;99.90;;;;;;5053147;28;20184;-78
2021/05/27 04:40:44;;;;;;;6.72;4.18;;;13.40;99.90;;;;;;5053758;28;20164;-78
2021/05/27 04:43:10;;;;;;;5.18;3.65;;;13.50;99.90;;;;;;5053524;28;20250;-77
2021/05/27 04:45:37;;;;;;;5.00;3.90;;;13.50;99.90;;;;;;5051533;28;20169;-77
2021/05/27 04:48:04;;;;;;;4.13;3.72;;;13.50;99.90;;;;;;5053302;28;20192;-77
2021/05/27 04:50:31;;;;;;;5.32;3.50;;;13.50;99.90;;;;;;5054456;28;20184;-78
2021/05/27 04:52:57;;;;;;;3.65;3.20;;;13.30;99.90;;;;;;5056917;28;20715;-77
2021/05/27 04:55:22;;;;;;;6.83;4.13;;;13.40;99.90;;;;;;5056791;28;20264;-77
2021/05/27 04:57:48;;;;;;;4.03;3.53;;;13.40;99.90;;;;;;5058045;28;20200;-76
2021/05/27 05:00:17;;;;;;;5.47;3.77;;;13.50;99.90;;;;;;5057966;28;20211;-78
2021/05/27 05:02:43;;;;;;;6.85;4.53;;;13.60;99.90;;;;;;5056568;28;20582;-77
2021/05/27 05:05:11;;;;;;;5.23;4.07;;;13.70;99.90;;;;;;5057362;28;20173;-77
2021/05/27 05:07:38;;;;;;;8.35;4.38;;;13.80;99.90;;;;;;5046857;28;20170;-77
2021/05/27 05:10:05;;;;;;;5.95;4.38;;;13.90;99.90;;;;;;5036467;28;20260;-78
2021/05/27 05:12:30;;;;;;;5.25;3.85;;;13.80;99.90;;;;;;5036062;28;20235;-77
2021/05/27 05:14:56;;;;;;;6.40;4.23;;;14.10;99.90;;;;;;5036180;28;20177;-78
2021/05/27 05:17:21;;;;;;;5.03;3.17;;;14.30;99.90;;;;;;5037049;28;20673;-77
2021/05/27 05:19:47;;;;;;;4.30;3.47;;;14.40;99.90;;;;;;5034711;28;20178;-77
2021/05/27 05:22:13;;;;;;;4.47;3.50;;;14.50;99.90;;;;;;5050163;28;20243;-77
2021/05/27 05:24:38;;;;;;;6.10;4.27;;;14.50;99.90;;;;;;5049448;28;20435;-79
2021/05/27 05:27:04;;;;;;;5.07;4.57;;;14.60;99.90;;;;;;5037222;28;20227;-79
2021/05/27 05:29:30;;;;;;;6.63;5.20;;;14.80;99.90;;;;;;5039212;28;20185;-78
2021/05/27 05:31:55;;;;;;;6.47;4.37;;;14.90;99.90;;;;;;5046986;28;20264;-78
2021/05/27 05:34:21;;;;;;;5.83;3.80;;;15.00;99.90;;;;;;5037424;28;20197;-79
2021/05/27 05:36:47;;;;;;;5.30;3.80;;;14.90;99.90;;;;;;5035979;28;20178;-79
2021/05/27 05:39:13;;;;;;;4.73;3.93;;;15.00;99.90;;;;;;5057257;28;20494;-78
2021/05/27 05:41:38;;;;;;;5.33;4.27;;;15.10;99.90;;;;;;5042728;28;20215;-77
2021/05/27 05:44:04;;;;;;;6.43;5.03;;;15.30;99.90;;;;;;5035030;28;20176;-79
2021/05/27 05:46:30;;;;;;;10.23;3.87;;;15.10;99.90;;;;;;5038360;28;20182;-81
2021/05/27 05:48:55;;;;;;;4.37;3.30;;;15.50;99.90;;;;;;5036632;28;20447;-79
2021/05/27 05:51:21;;;;;;;3.77;3.40;;;16.10;99.90;;;;;;5039049;28;20204;-80
2021/05/27 05:53:47;;;;;;;3.83;3.37;;;16.30;99.90;;;;;;5038491;28;20164;-77
2021/05/27 05:56:13;;;;;;;5.00;3.43;;;16.20;99.90;;;;;;5037396;28;20177;-79
2021/05/27 05:58:38;;;;;;;5.60;4.53;;;16.10;99.90;;;;;;5019105;28;20280;-79
2021/05/27 06:01:04;;;;;;;6.17;3.60;;;15.70;99.90;;;;;;5036774;28;20406;-80
2021/05/27 06:03:32;;;;;;;4.20;3.57;;;15.20;99.90;;;;;;5036252;28;20204;-77
2021/05/27 06:05:58;;;;;;;5.57;4.30;;;15.10;99.90;;;;;;5038619;28;20189;-80
2021/05/27 06:08:26;;;;;;;5.33;4.70;;;15.00;99.90;;;;;;5038928;28;20455;-79
2021/05/27 06:10:52;;;;;;;4.93;3.80;;;14.70;99.90;;;;;;5056672;28;20470;-79
2021/05/27 06:13:17;;;;;;;5.00;4.10;;;14.70;99.90;;;;;;5054555;28;20272;-79
2021/05/27 06:15:43;;;;;;;5.07;3.77;;;14.80;99.90;;;;;;5055762;28;20209;-78
2021/05/27 06:18:09;;;;;;;4.50;4.10;;;14.80;99.90;;;;;;5053785;28;20193;-79
2021/05/27 06:20:34;;;;;;;4.33;3.90;;;14.90;99.90;;;;;;5037737;28;20181;-78
2021/05/27 06:23:00;;;;;;;7.97;5.13;;;14.60;99.90;;;;;;5045383;28;20271;-78
2021/05/27 06:25:26;;;;;;;5.73;4.67;;;14.50;99.90;;;;;;5035069;28;20186;-79
2021/05/27 06:27:53;;;;;;;4.30;3.78;;;14.70;99.90;;;;;;5039622;28;20188;-79
2021/05/27 06:30:20;;;;;;;4.07;3.27;;;14.80;99.90;;;;;;5051470;28;20644;-77
2021/05/27 06:32:46;;;;;;;5.15;3.83;;;14.50;99.90;;;;;;5054506;28;20450;-79
2021/05/27 06:35:13;;;;;;;5.43;4.17;;;14.40;99.90;;;;;;5055567;28;20177;-79
2021/05/27 06:37:41;;;;;;;9.05;4.47;;;14.00;99.90;;;;;;5067475;28;20778;-79
2021/05/27 06:40:15;;;;;;;6.30;4.40;;;14.10;99.90;;;;;;5044903;28;20805;-80
2021/05/27 06:42:42;;;;;;;7.10;4.90;;;13.90;99.90;;;;;;5055025;28;20202;-79
2021/05/27 06:45:09;;;;;;;6.72;4.30;;;14.20;99.90;;;;;;5053311;28;20180;-79
2021/05/27 06:47:35;;;;;;;4.47;3.65;;;14.30;99.90;;;;;;5042794;28;20189;-80
2021/05/27 06:50:01;;;;;;;6.43;4.57;;;14.30;99.90;;;;;;5034181;28;20508;-78
2021/05/27 06:52:27;;;;;;;9.95;5.90;;;14.40;99.90;;;;;;5033354;28;20503;-79
2021/05/27 06:54:53;;;;;;;5.73;4.40;;;14.40;99.90;;;;;;5023965;28;20731;-77
2021/05/27 06:57:19;;;;;;;4.40;3.45;;;14.20;99.90;;;;;;5030397;28;20653;-78
2021/05/27 06:59:44;;;;;;;5.17;4.50;;;14.30;99.90;;;;;;5034150;28;20193;-79
2021/05/27 07:02:10;;;;;;;4.70;3.60;;;14.00;99.90;;;;;;5051980;28;20551;-79
2021/05/27 07:04:35;;;;;;;5.13;4.33;;;13.90;99.90;;;;;;5045707;28;20268;-79
2021/05/27 07:07:01;;;;;;;5.13;4.37;;;14.00;99.90;;;;;;5037722;28;20204;-80
2021/05/27 07:09:26;;;;;;;3.80;3.10;;;14.10;99.90;;;;;;5016647;28;20220;-79
2021/05/27 07:11:52;;;;;;;4.47;3.60;;;14.30;99.90;;;;;;5039693;28;20205;-79
2021/05/27 07:14:17;;;;;;;4.57;3.33;;;14.40;99.90;;;;;;5014703;28;20199;-78
2021/05/27 07:16:43;;;;;;;6.17;3.43;;;14.50;99.90;;;;;;5026367;28;20259;-80
2021/05/27 07:19:08;;;;;;;4.90;4.00;;;14.20;99.90;;;;;;5039327;28;20185;-79
2021/05/27 07:21:34;;;;;;;5.77;4.40;;;14.10;99.90;;;;;;5034342;28;20205;-80
2021/05/27 07:24:00;;;;;;;6.93;4.13;;;13.80;99.90;;;;;;5034231;28;20193;-78
2021/05/27 07:26:36;;;;;;;4.33;3.30;;;13.60;99.90;;;;;;5039133;28;20188;-78
2021/05/27 07:29:02;;;;;;;5.32;3.40;;;13.60;99.90;;;;;;5040419;28;20187;-80
2021/05/27 07:31:29;;;;;;;7.80;4.57;;;13.60;99.90;;;;;;5053496;28;20690;-79
2021/05/27 07:33:54;;;;;;;4.22;3.67;;;13.60;99.90;;;;;;5045779;28;20170;-78
2021/05/27 07:36:20;;;;;;;4.63;3.97;;;13.30;99.90;;;;;;5034581;28;20174;-80
2021/05/27 07:38:45;;;;;;;4.23;3.50;;;13.40;99.90;;;;;;5058134;28;20153;-79
2021/05/27 07:41:13;;;;;;;4.20;3.40;;;13.60;99.90;;;;;;5054391;28;20540;-78
2021/05/27 07:43:39;;;;;;;3.55;3.10;;;14.10;99.90;;;;;;5053775;28;20204;-80
2021/05/27 07:46:05;;;;;;;2.57;2.30;;;14.10;99.90;;;;;;5055611;28;20196;-79
2021/05/27 07:48:30;;;;;;;5.50;3.20;;;14.00;99.90;;;;;;5045126;28;20249;-79
2021/05/27 07:50:56;;;;;;;4.30;3.47;;;13.90;99.90;;;;;;5035301;28;20207;-79
2021/05/27 07:53:22;;;;;;;4.10;3.10;;;14.00;99.90;;;;;;5013663;28;20197;-77
2021/05/27 07:55:49;;;;;;;3.30;2.60;;;14.00;99.90;;;;;;5014984;28;20472;-80
2021/05/27 07:58:14;;;;;;;5.80;3.75;;;14.30;99.90;;;;;;5041389;28;20202;-79
2021/05/27 08:00:40;;;;;;;4.07;3.03;;;14.50;99.90;;;;;;5035300;28;20256;-79
2021/05/27 08:03:06;;;;;;;5.30;4.05;;;14.50;99.90;;;;;;5034749;28;20205;-79
2021/05/27 08:05:32;;;;;;;3.50;3.00;;;14.60;99.90;;;;;;5034862;28;20645;-79
2021/05/27 08:08:01;;;;;;;3.07;2.77;;;14.80;99.90;;;;;;5033713;28;20201;-80
2021/05/27 08:10:26;;;;;;;3.65;3.20;;;14.40;99.90;;;;;;5035717;28;20173;-79
2021/05/27 08:13:12;;;;;;;3.30;2.63;;;14.10;99.90;;;;;;5028402;28;20575;-79
2021/05/27 08:15:38;;;;;;;4.00;3.58;;;14.30;99.90;;;;;;5048021;28;20549;-80
2021/05/27 08:18:04;;;;;;;7.57;4.43;;;14.50;99.90;;;;;;5034838;28;20185;-79
2021/05/27 08:20:29;;;;;;;10.97;4.40;;;14.60;99.90;;;;;;5032458;28;20205;-79
2021/05/27 08:22:55;;;;;;;5.00;3.30;;;14.80;99.90;;;;;;5031446;28;20239;-80
2021/05/27 08:25:20;;;;;;;4.90;3.80;;;14.90;99.90;;;;;;5018373;28;20246;-80
2021/05/27 08:27:46;;;;;;;7.60;3.20;;;15.00;99.90;;;;;;5020604;28;20174;-80
2021/05/27 08:30:15;;;;;;;4.33;3.40;;;15.00;99.90;;;;;;5036963;28;20182;-80
2021/05/27 08:32:41;;;;;;;6.93;3.50;;;15.00;99.90;;;;;;5035789;28;20208;-79
2021/05/27 08:35:07;;;;;;;7.32;3.35;;;14.90;99.90;;;;;;5038643;28;20492;-80
2021/05/27 08:37:33;;;;;;;4.72;3.67;;;14.80;99.90;;;;;;5020683;28;20215;-81
2021/05/27 08:39:59;;;;;;;3.70;2.80;;;15.00;99.90;;;;;;5037623;28;20179;-80
2021/05/27 08:42:29;;;;;;;3.50;3.13;;;15.10;99.90;;;;;;5052128;28;20213;-79
2021/05/27 08:45:07;;;;;;;5.70;3.30;;;15.40;99.90;;;;;;5058484;28;20197;-80
2021/05/27 08:47:32;;;;;;;3.20;2.83;;;15.60;99.90;;;;;;5055597;28;20175;-78
2021/05/27 08:50:00;;;;;;;4.43;3.00;;;15.30;99.90;;;;;;5046251;28;20444;-80
2021/05/27 08:52:25;;;;;;;4.10;3.33;;;15.20;99.90;;;;;;5055936;28;20244;-79
2021/05/27 08:54:51;;;;;;;5.43;3.00;;;15.40;99.90;;;;;;5037058;28;20860;-80
2021/05/27 08:57:17;;;;;;;4.30;2.73;;;15.30;99.90;;;;;;5035116;28;20188;-80
2021/05/27 08:59:42;;;;;;;5.33;2.87;;;15.50;99.90;;;;;;5019251;28;20207;-80
2021/05/27 09:02:09;;;;;;;5.50;2.70;;;15.40;99.90;;;;;;5034807;28;20221;-80
2021/05/27 09:04:38;;;;;;;3.07;2.70;;;15.40;99.90;;;;;;5043099;28;20259;-80
2021/05/27 09:07:03;;;;;;;3.57;2.93;;;15.20;99.90;;;;;;5054175;28;20410;-80
2021/05/27 09:09:49;;;;;;;3.10;2.23;;;15.10;99.90;;;;;;5039643;28;20902;-80
2021/05/27 09:12:30;;;;;;;4.50;2.53;;;15.10;99.90;;;;;;5056122;28;20198;-80
2021/05/27 09:14:56;;;;;;;3.30;2.80;;;15.10;99.90;;;;;;5057431;28;20414;-80
2021/05/27 09:17:22;;;;;;;3.33;2.90;;;15.00;99.90;;;;;;5039424;28;20436;-80
2021/05/27 09:20:10;;;;;;;3.50;2.57;;;14.90;99.90;;;;;;5041869;28;20419;-80
2021/05/27 09:22:36;;;;;;;2.92;2.55;;;15.00;99.90;;;;;;5058312;28;20209;-80
2021/05/27 09:25:02;;;;;;;4.93;2.10;;;15.00;99.90;;;;;;5056977;28;20175;-79
2021/05/27 09:27:43;;;;;;;5.00;3.27;;;14.90;99.90;;;;;;5054796;28;20238;-80
2021/05/27 09:30:10;;;;;;;3.22;2.70;;;14.70;99.90;;;;;;5059059;28;20441;-79
2021/05/27 09:32:40;;;;;;;2.95;2.00;;;14.80;99.90;;;;;;5036125;28;20286;-80
2021/05/27 09:35:09;;;;;;;2.45;2.25;;;14.90;99.90;;;;;;5038571;28;20223;-80
2021/05/27 09:37:37;;;;;;;2.13;1.90;;;14.90;99.90;;;;;;5055644;28;20611;-79
2021/05/27 09:40:06;;;;;;;2.30;1.80;;;14.80;99.90;;;;;;5057472;28;20184;-80
2021/05/27 09:42:49;;;;;;;4.97;1.90;;;15.10;99.90;;;;;;5038186;28;20221;-79
2021/05/27 09:45:16;;;;;;;3.33;2.00;;;15.40;99.90;;;;;;5036844;28;20172;-79
2021/05/27 09:47:45;;;;;;;2.07;1.50;;;15.60;99.90;;;;;;5054646;28;20425;-80
2021/05/27 09:50:11;;;;;;;1.90;1.50;;;15.50;99.90;;;;;;5040591;28;20449;-80
2021/05/27 09:52:48;;;;;;;2.43;1.20;;;15.70;99.90;;;;;;5053591;28;20465;-80
2021/05/27 09:55:19;;;;;;;4.97;1.13;;;15.80;99.90;;;;;;5056617;28;20425;-81
2021/05/27 09:57:47;;;;;;;2.03;1.43;;;15.50;99.90;;;;;;5015526;28;20473;-79
2021/05/27 10:00:21;;;;;;;3.43;1.10;;;15.40;99.90;;;;;;5055239;28;20452;-80
2021/05/27 10:02:47;;;;;;;2.75;2.00;;;15.30;99.90;;;;;;5056744;28;20519;-81
2021/05/27 10:05:14;;;;;;;2.03;1.30;;;15.60;99.90;;;;;;5039739;28;20657;-80
2021/05/27 10:07:45;;;;;;;2.20;2.00;;;15.90;99.90;;;;;;5035893;28;20810;-80
2021/05/27 10:10:16;;;;;;;2.20;1.90;;;15.70;99.90;;;;;;5035091;28;20439;-80
2021/05/27 10:12:44;;;;;;;3.30;2.10;;;16.00;99.90;;;;;;5019671;28;20801;-79
2021/05/27 10:15:16;;;;;;;2.30;2.00;;;16.00;99.90;;;;;;5048578;28;20956;-80
2021/05/27 10:17:46;;;;;;;1.77;1.60;;;16.30;99.90;;;;;;5057689;28;20410;-80
2021/05/27 10:20:15;;;;;;;1.80;1.60;;;16.60;99.90;;;;;;5039089;28;20435;-79
2021/05/27 10:22:43;;;;;;;1.97;1.40;;;16.70;99.90;;;;;;5056703;28;20463;-80
2021/05/27 10:25:10;;;;;;;1.80;1.50;;;16.60;99.90;;;;;;5044881;28;20427;-81
2021/05/27 10:27:36;;;;;;;2.13;1.40;;;16.70;99.90;;;;;;5042092;28;20534;-80
2021/05/27 10:30:06;;;;;;;3.60;1.70;;;16.40;99.90;;;;;;5038463;28;20446;-80
2021/05/27 10:32:33;;;;;;;2.40;1.50;;;16.30;99.90;;;;;;5035168;28;20201;-80
2021/05/27 10:34:59;;;;;;;5.10;1.60;;;16.60;99.90;;;;;;5020923;28;20408;-79
2021/05/27 10:37:33;;;;;;;2.27;1.60;;;16.80;99.90;;;;;;5055221;28;20526;-79
2021/05/27 10:40:03;;;;;;;2.00;1.80;;;16.90;99.90;;;;;;5057578;28;20663;-79
2021/05/27 10:42:57;;;;;;;4.40;1.50;;;17.00;99.90;;;;;;5050678;28;21058;-80
2021/05/27 10:45:32;;;;;;;3.20;1.40;;;17.10;99.90;;;;;;5026410;28;20463;-80
2021/05/27 10:48:13;;;;;;;4.07;1.80;;;17.20;99.90;;;;;;5015749;28;20528;-80
2021/05/27 10:51:05;;;;;;;3.73;1.50;;;16.90;99.90;;;;;;5030325;28;20424;-80
2021/05/27 10:53:34;;;;;;;4.00;2.40;;;16.40;99.90;;;;;;5049002;28;20422;-80
2021/05/27 10:56:34;;;;;;;8.47;4.00;;;16.10;99.90;;;;;;5050723;28;20787;-79
2021/05/27 10:59:00;;;;;;;2.50;2.30;;;16.10;99.90;;;;;;5043166;28;20454;-80
2021/05/27 11:01:33;;;;;;;2.83;2.23;;;16.30;99.90;;;;;;5053278;28;20443;-80
2021/05/27 11:03:59;;;;;;;4.80;2.10;;;16.50;99.90;;;;;;5044855;28;20432;-78
2021/05/27 11:06:44;;;;;;;1.20;1.10;;;16.50;99.90;;;;;;5036096;28;20435;-80
2021/05/27 11:09:25;;;;;;;1.67;1.13;;;16.40;99.90;;;;;;5034618;28;20455;-80
2021/05/27 11:12:02;;;;;;;1.47;1.37;;;16.00;99.90;;;;;;5036532;28;20439;-80
2021/05/27 11:14:51;;;;;;;2.30;1.50;;;15.70;99.90;;;;;;5036371;28;20415;-80
2021/05/27 11:17:21;;;;;;;5.90;1.60;;;15.60;99.90;;;;;;5036157;28;20435;-80
2021/05/27 11:27:54;;;;;;;1.93;1.40;;;16.20;99.90;;;;;;5039003;28;20469;-79
2021/05/27 11:30:41;;;;;;;1.23;1.13;;;15.80;99.90;;;;;;5043558;28;20431;-80
2021/05/27 11:33:13;;;;;;;2.27;1.63;;;15.60;99.90;;;;;;5032983;28;20445;-80
2021/05/27 11:35:39;;;;;;;1.90;1.20;;;15.40;99.90;;;;;;5036636;28;20445;-80
2021/05/27 11:38:26;;;;;;;2.23;1.50;;;15.40;99.90;;;;;;5046480;28;20445;-79
2021/05/27 11:40:55;;;;;;;2.27;1.47;;;15.70;99.90;;;;;;5054835;28;20503;-80
2021/05/27 11:43:30;;;;;;;1.40;1.00;;;15.90;99.90;;;;;;5019351;28;20472;-78
2021/05/27 11:45:59;;;;;;;1.37;1.00;;;16.00;99.90;;;;;;5052371;28;20436;-80
2021/05/27 11:48:34;;;;;;;2.03;1.23;;;16.10;99.90;;;;;;5049551;28;20449;-79
2021/05/27 11:51:16;;;;;;;1.10;0.90;;;16.10;99.90;;;;;;5043919;28;20462;-79
2021/05/27 11:53:47;;;;;;;1.27;1.00;;;16.00;99.90;;;;;;5048028;28;20501;-79
2021/05/27 11:56:39;;;;;;;2.67;1.30;;;16.00;99.90;;;;;;5018679;28;20456;-79
2021/05/27 11:59:07;;;;;;;1.13;1.00;;;16.10;99.90;;;;;;5019317;28;20457;-80
2021/05/27 12:01:33;;;;;;;1.10;0.83;;;16.10;99.90;;;;;;5037562;28;20505;-79
2021/05/27 12:04:20;;;;;;;2.10;1.20;;;15.80;99.90;;;;;;5035382;28;20847;-78
2021/05/27 12:06:57;;;;;;;1.30;1.20;;;15.10;99.90;;;;;;5038682;28;20200;-78
2021/05/27 12:09:27;;;;;;;1.88;1.35;;;14.50;99.90;;;;;;5052432;28;20180;-78
2021/05/27 12:11:54;;;;;;;1.52;0.85;;;14.20;99.90;;;;;;5051676;28;20197;-79
2021/05/27 12:14:20;;;;;;;1.33;1.20;;;13.90;99.90;;;;;;5052844;28;20600;-78
2021/05/27 12:16:46;;;;;;;1.60;1.40;;;13.90;99.90;;;;;;5038695;28;20178;-78
2021/05/27 12:19:12;;;;;;;2.00;1.07;;;13.90;99.90;;;;;;5064910;28;20436;-78
2021/05/27 12:21:52;;;;;;;4.93;1.42;;;14.20;99.90;;;;;;5033066;28;20494;-79
2021/05/27 12:24:26;;;;;;;2.20;1.70;;;14.40;99.90;;;;;;5032819;28;20188;-80
2021/05/27 12:26:52;;;;;;;2.10;1.33;;;14.90;99.90;;;;;;5043262;28;20177;-79
2021/05/27 12:29:18;;;;;;;3.27;1.73;;;15.30;99.90;;;;;;5034459;28;20186;-79
2021/05/27 12:31:45;;;;;;;3.13;1.10;;;15.60;99.90;;;;;;5034705;28;20189;-80
2021/05/27 12:34:14;;;;;;;1.70;1.37;;;15.90;99.90;;;;;;5039143;28;20426;-80
2021/05/27 12:36:57;;;;;;;3.33;1.40;;;16.00;99.90;;;;;;5053696;28;20863;-81
2021/05/27 12:39:37;;;;;;;2.17;1.97;;;16.10;99.90;;;;;;5045335;28;20795;-80
2021/05/27 12:42:09;;;;;;;1.20;1.10;;;16.10;99.90;;;;;;5023668;28;20971;-79
2021/05/27 12:44:40;;;;;;;1.10;0.93;;;16.10;99.90;;;;;;5040381;28;20515;-79
2021/05/27 12:47:17;;;;;;;2.63;1.60;;;16.20;99.90;;;;;;5018747;28;20446;-80
2021/05/27 12:49:44;;;;;;;2.60;1.30;;;16.20;99.90;;;;;;5034446;28;20412;-80
2021/05/27 12:52:10;;;;;;;1.50;1.17;;;16.20;99.90;;;;;;5035975;28;20526;-80
2021/05/27 12:54:35;;;;;;;1.40;1.13;;;16.20;99.90;;;;;;5036094;28;20444;-79
2021/05/27 12:57:07;;;;;;;1.33;1.00;;;16.40;99.90;;;;;;5036811;28;20776;-80
2021/05/27 12:59:34;;;;;;;3.07;0.90;;;16.40;99.90;;;;;;5035512;28;20196;-80
2021/05/27 13:02:00;;;;;;;1.73;1.13;;;16.30;99.90;;;;;;5035160;28;20470;-80
2021/05/27 13:04:32;;;;;;;2.10;1.20;;;16.20;99.90;;;;;;5036825;28;20695;-80